METAR stanice u blizini

 

LYBE - Beograd / Surčin, Srbija
Ažurirano: 16/07/2024 16:30
Vedro
Vedro
 Pravac vetra JI
Vetar: JI 20 km/h
Temperatura: 38°C
Tačka rose: 12°C
Vlažnost: 21%
Pritisak: 1010 hPa
Pregled: Vedro
Vidljivost: greater than 10 km
2024/07/16 14:30 LYBE 161430Z 14011KT CAVOK 38/12 Q1010 NOSIG
LYBT - Beograd / Batajnica, Srbija
Ažurirano: 16/07/2024 16:30
Vedro
Vedro
 Pravac vetra JI
Vetar: JI 17 km/h
Temperatura: 39°C
Tačka rose: 14°C
Vlažnost: 23%
Pritisak: 1010 hPa
Pregled: Vedro
Vidljivost: greater than 10 km
2024/07/16 14:30 LYBT 161430Z 13009KT 090V180 CAVOK 39/14 Q1010 NOSIG
LYVR - Vršac, Srbija
Ažurirano: 16/07/2024 16:30
Vedro
Vedro
 Pravac vetra J
Vetar: J 20 km/h
Temperatura: 39°C
Tačka rose: 12°C
Vlažnost: 20%
Pritisak: 1010 hPa
Pregled: Vedro
Vidljivost: greater than 10 km
2024/07/16 14:30 LYVR 161430Z AUTO 17011KT CAVOK 39/12 Q1010
 
LYKV - Lađevci, Srbija
Ažurirano: 16/07/2024 16:30
Vedro
Vedro
 Pravac vetra JI
Vetar: JI 17 km/h
Temperatura: 39°C
Tačka rose: 8°C
Vlažnost: 15%
Pritisak: 1010 hPa
Pregled: Vedro
Vidljivost: greater than 10 km
2024/07/16 14:30 LYKV 161430Z 13009KT 100V160 CAVOK 39/08 Q1010 NOSIG
LYNI - Niš, Srbija
Ažurirano: 16/07/2024 16:30
Vedro
Vedro
 Pravac vetra JJI
Vetar: JJI 9 km/h, Maks.: 30 km/h
Temperatura: 39°C
Tačka rose: 14°C
Vlažnost: 23%
Pritisak: 1011 hPa
Pregled: Vedro
Vidljivost: greater than 10 km
2024/07/16 14:30 LYNI 161430Z 15005G16KT CAVOK 39/14 Q1011 NOSIG
BKPR - Priština, Srbija
Ažurirano: 16/07/2024 17:00
Vedro
Vedro
 Pravac vetra varies
Vetar: varies 6 km/h
Temperatura: 36°C
Tačka rose: 9°C
Vlažnost: 19%
Pritisak: 1013 hPa
Pregled: Vedro
Vidljivost: greater than 10 km
2024/07/16 15:00 BKPR 161500Z VRB03KT CAVOK 36/09 Q1013 NOSIG
 
LHPP - Pecs / Pogany, Hungary
Ažurirano: 16/07/2024 16:45
Vedro
Vedro
 Pravac vetra S
Vetar: S 15 km/h
Temperatura: 36°C
Heat Index: 40°C
Tačka rose: 21°C
Vlažnost: 42%
Pritisak: 1011 hPa
Pregled: Vedro
Vidljivost: greater than 10 km
2024/07/16 14:45 LHPP 161445Z AUTO 36008KT 310V050 CAVOK 36/21 Q1011
LHUD - Szeged, Hungary
Ažurirano: 04/07/2019 01:45
NOT Current
Vedro
Vedro
 Pravac vetra S
Vetar: S 7 km/h
Temperatura: 18°C
Tačka rose: 13°C
Vlažnost: 73%
Pritisak: 1019 hPa
Pregled: Vedro
Vidljivost: greater than 10 km
2019/07/03 23:45 LHUD 032345Z 35004KT CAVOK 18/13 Q1019
LRTR - Timisoara, Romania
Ažurirano: 16/07/2024 16:30
Vedro
Vedro
 Pravac vetra JJI
Vetar: JJI 11 km/h
Temperatura: 39°C
Tačka rose: 10°C
Vlažnost: 17%
Pritisak: 1010 hPa
Pregled: Vedro
Vidljivost: greater than 10 km
2024/07/16 14:30 LRTR 161430Z 15006KT 120V180 CAVOK 39/10 Q1010
 
LRCV - Craiova, Romania
Ažurirano: 16/07/2024 16:30
Vedro
Vedro
 Pravac vetra ZJZ
Vetar: ZJZ 11 km/h
Temperatura: 39°C
Tačka rose: 13°C
Vlažnost: 21%
Pritisak: 1011 hPa
Pregled: Vedro
Vidljivost: greater than 10 km
2024/07/16 14:30 LRCV 161430Z 25006KT 210V340 CAVOK 39/13 Q1011
LBSF - Sofia, Bulgaria
Ažurirano: 16/07/2024 17:00
Partly Cloudy
Partly Cloudy
 Pravac vetra J
Vetar: J 17 km/h
Temperatura: 35°C
Tačka rose: 12°C
Vlažnost: 25%
Pritisak: 1013 hPa
Oblaci: Partly Cloudy
Vidljivost: 10 km
2024/07/16 15:00 LBSF 161500Z AUTO 19009KT 150V220 9999 NSC 35/12 Q1013 NOSIG
LWSK - Skoplje, Makedonija
Ažurirano: 16/07/2024 16:50
Vedro
Vedro
 Pravac vetra ZJZ
Vetar: ZJZ 7 km/h
Temperatura: 41°C
Tačka rose: 13°C
Vlažnost: 19%
Pritisak: 1009 hPa
Pregled: Vedro
Vidljivost: greater than 10 km
2024/07/16 14:50 LWSK 161450Z 25004KT 180V330 CAVOK 41/13 Q1009 NOSIG
 
LYPG - Podgorica, Crna Gora
Ažurirano: 16/07/2024 16:30
Few Clouds
Few Clouds
 Pravac vetra JJZ
Vetar: JJZ 19 km/h
Temperatura: 38°C
Tačka rose: 16°C
Vlažnost: 27%
Pritisak: 1008 hPa
Oblaci: Few Clouds
Vidljivost: 10 km
Cloud details: Few Clouds 1524 m
2024/07/16 14:30 LYPG 161430Z 20010KT 170V230 9999 FEW050 38/16 Q1008 NOSIG
LQSA - Sarajevo, Bosna i Hercegovina
Ažurirano: 16/07/2024 16:30
Vedro
Vedro
 Pravac vetra SSZ
Vetar: SSZ 11 km/h
Temperatura: 36°C
Tačka rose: 11°C
Vlažnost: 22%
Pritisak: 1012 hPa
Pregled: Vedro
Vidljivost: greater than 10 km
2024/07/16 14:30 LQSA 161430Z 33006KT 280V030 CAVOK 36/11 Q1012 NOSIG
LDOS - Osijek, Hrvatksa
Ažurirano: 16/07/2024 17:00
Vedro
Vedro
 Pravac vetra varies
Vetar: varies 4 km/h
Temperatura: 36°C
Heat Index: 42°C
Tačka rose: 23°C
Vlažnost: 47%
Pritisak: 1010 hPa
Pregled: Vedro
Vidljivost: greater than 10 km
2024/07/16 15:00 LDOS 161500Z VRB02KT CAVOK 36/23 Q1010